sensor_id;sensor_type;location;lat;lon;timestamp;P1;durP1;ratioP1;P2;durP2;ratioP2
22614;SDS011;11474;50.790;0.298;2022-12-18T00:01:04;30.97;;;16.83;;
22614;SDS011;11474;50.790;0.298;2022-12-18T00:03:34;29.83;;;16.58;;
22614;SDS011;11474;50.790;0.298;2022-12-18T00:06:00;32.27;;;16.13;;
22614;SDS011;11474;50.790;0.298;2022-12-18T00:08:26;31.58;;;16.10;;
22614;SDS011;11474;50.790;0.298;2022-12-18T00:10:52;32.67;;;15.57;;
22614;SDS011;11474;50.790;0.298;2022-12-18T00:13:19;31.77;;;15.75;;
22614;SDS011;11474;50.790;0.298;2022-12-18T00:15:45;29.60;;;15.23;;
22614;SDS011;11474;50.790;0.298;2022-12-18T00:18:11;31.27;;;14.88;;
22614;SDS011;11474;50.790;0.298;2022-12-18T00:20:37;30.10;;;15.07;;
22614;SDS011;11474;50.790;0.298;2022-12-18T00:23:04;32.57;;;14.53;;
22614;SDS011;11474;50.790;0.298;2022-12-18T00:25:32;27.67;;;14.00;;
22614;SDS011;11474;50.790;0.298;2022-12-18T00:27:59;29.77;;;13.38;;
22614;SDS011;11474;50.790;0.298;2022-12-18T00:30:25;25.48;;;13.57;;
22614;SDS011;11474;50.790;0.298;2022-12-18T00:32:51;30.20;;;14.13;;
22614;SDS011;11474;50.790;0.298;2022-12-18T00:35:17;30.60;;;14.55;;
22614;SDS011;11474;50.790;0.298;2022-12-18T00:37:43;26.65;;;13.63;;
22614;SDS011;11474;50.790;0.298;2022-12-18T00:40:09;26.48;;;13.70;;
22614;SDS011;11474;50.790;0.298;2022-12-18T00:42:35;24.83;;;13.32;;
22614;SDS011;11474;50.790;0.298;2022-12-18T00:47:49;29.42;;;14.15;;
22614;SDS011;11474;50.790;0.298;2022-12-18T00:50:15;27.40;;;13.73;;
22614;SDS011;11474;50.790;0.298;2022-12-18T00:52:41;27.02;;;12.93;;
22614;SDS011;11474;50.790;0.298;2022-12-18T00:55:07;24.70;;;12.45;;
22614;SDS011;11474;50.790;0.298;2022-12-18T00:57:34;25.10;;;13.00;;
22614;SDS011;11474;50.790;0.298;2022-12-18T01:00:00;25.27;;;11.57;;
22614;SDS011;11474;50.790;0.298;2022-12-18T01:02:26;26.08;;;11.77;;
22614;SDS011;11474;50.790;0.298;2022-12-18T01:04:53;21.80;;;10.75;;
22614;SDS011;11474;50.790;0.298;2022-12-18T01:07:19;24.23;;;10.35;;
22614;SDS011;11474;50.790;0.298;2022-12-18T01:09:45;21.23;;;10.40;;
22614;SDS011;11474;50.790;0.298;2022-12-18T01:12:11;21.75;;;9.68;;
22614;SDS011;11474;50.790;0.298;2022-12-18T01:14:37;18.58;;;9.68;;
22614;SDS011;11474;50.790;0.298;2022-12-18T01:17:03;18.20;;;9.27;;
22614;SDS011;11474;50.790;0.298;2022-12-18T01:19:29;17.80;;;9.05;;
22614;SDS011;11474;50.790;0.298;2022-12-18T01:21:56;20.80;;;9.10;;
22614;SDS011;11474;50.790;0.298;2022-12-18T01:24:22;21.77;;;9.97;;
22614;SDS011;11474;50.790;0.298;2022-12-18T01:26:48;17.60;;;8.77;;
22614;SDS011;11474;50.790;0.298;2022-12-18T01:29:14;22.63;;;9.63;;
22614;SDS011;11474;50.790;0.298;2022-12-18T01:31:40;22.65;;;10.52;;
22614;SDS011;11474;50.790;0.298;2022-12-18T01:34:07;26.23;;;9.50;;
22614;SDS011;11474;50.790;0.298;2022-12-18T01:36:34;23.48;;;9.85;;
22614;SDS011;11474;50.790;0.298;2022-12-18T01:39:01;18.75;;;9.00;;
22614;SDS011;11474;50.790;0.298;2022-12-18T01:41:28;20.98;;;9.35;;
22614;SDS011;11474;50.790;0.298;2022-12-18T01:46:59;23.60;;;10.25;;
22614;SDS011;11474;50.790;0.298;2022-12-18T01:49:25;21.83;;;10.07;;
22614;SDS011;11474;50.790;0.298;2022-12-18T01:51:52;19.75;;;9.82;;
22614;SDS011;11474;50.790;0.298;2022-12-18T01:54:18;22.80;;;10.73;;
22614;SDS011;11474;50.790;0.298;2022-12-18T01:56:44;25.98;;;11.57;;
22614;SDS011;11474;50.790;0.298;2022-12-18T01:59:10;25.75;;;11.75;;
22614;SDS011;11474;50.790;0.298;2022-12-18T02:01:36;26.48;;;11.93;;
22614;SDS011;11474;50.790;0.298;2022-12-18T02:04:22;23.92;;;11.48;;
22614;SDS011;11474;50.790;0.298;2022-12-18T02:06:51;24.20;;;10.88;;
22614;SDS011;11474;50.790;0.298;2022-12-18T02:09:23;25.15;;;12.05;;
22614;SDS011;11474;50.790;0.298;2022-12-18T02:27:15;20.77;;;9.82;;
22614;SDS011;11474;50.790;0.298;2022-12-18T02:29:46;21.40;;;10.40;;
22614;SDS011;11474;50.790;0.298;2022-12-18T02:32:15;21.55;;;10.85;;
22614;SDS011;11474;50.790;0.298;2022-12-18T02:34:43;20.83;;;10.52;;
22614;SDS011;11474;50.790;0.298;2022-12-18T02:37:11;22.77;;;11.23;;
22614;SDS011;11474;50.790;0.298;2022-12-18T02:39:38;21.70;;;9.90;;
22614;SDS011;11474;50.790;0.298;2022-12-18T02:42:06;20.33;;;10.07;;
22614;SDS011;11474;50.790;0.298;2022-12-18T02:44:33;24.45;;;11.00;;
22614;SDS011;11474;50.790;0.298;2022-12-18T02:47:00;22.55;;;11.57;;
22614;SDS011;11474;50.790;0.298;2022-12-18T02:52:05;21.35;;;9.88;;
22614;SDS011;11474;50.790;0.298;2022-12-18T02:54:39;21.02;;;10.50;;
22614;SDS011;11474;50.790;0.298;2022-12-18T02:57:25;21.35;;;10.18;;
22614;SDS011;11474;50.790;0.298;2022-12-18T02:59:58;22.92;;;10.48;;
22614;SDS011;11474;50.790;0.298;2022-12-18T03:05:01;23.35;;;10.27;;
22614;SDS011;11474;50.790;0.298;2022-12-18T03:07:41;23.50;;;10.73;;
22614;SDS011;11474;50.790;0.298;2022-12-18T03:10:09;24.10;;;10.60;;
22614;SDS011;11474;50.790;0.298;2022-12-18T03:12:38;20.75;;;10.70;;
22614;SDS011;11474;50.790;0.298;2022-12-18T03:15:19;21.48;;;10.95;;
22614;SDS011;11474;50.790;0.298;2022-12-18T03:17:52;22.90;;;11.47;;
22614;SDS011;11474;50.790;0.298;2022-12-18T03:20:21;22.42;;;11.02;;
22614;SDS011;11474;50.790;0.298;2022-12-18T03:22:49;20.85;;;10.77;;
22614;SDS011;11474;50.790;0.298;2022-12-18T03:25:16;22.55;;;10.27;;
22614;SDS011;11474;50.790;0.298;2022-12-18T03:27:45;22.88;;;10.63;;
22614;SDS011;11474;50.790;0.298;2022-12-18T03:30:12;22.52;;;10.60;;
22614;SDS011;11474;50.790;0.298;2022-12-18T03:35:07;20.38;;;10.82;;
22614;SDS011;11474;50.790;0.298;2022-12-18T03:37:34;21.98;;;11.40;;
22614;SDS011;11474;50.790;0.298;2022-12-18T03:40:00;23.92;;;10.43;;
22614;SDS011;11474;50.790;0.298;2022-12-18T03:42:31;21.33;;;10.45;;
22614;SDS011;11474;50.790;0.298;2022-12-18T03:47:35;22.40;;;10.85;;
22614;SDS011;11474;50.790;0.298;2022-12-18T03:52:37;18.25;;;9.93;;
22614;SDS011;11474;50.790;0.298;2022-12-18T03:55:05;24.30;;;11.73;;
22614;SDS011;11474;50.790;0.298;2022-12-18T03:57:31;24.83;;;11.02;;
22614;SDS011;11474;50.790;0.298;2022-12-18T04:00:00;20.00;;;9.88;;
22614;SDS011;11474;50.790;0.298;2022-12-18T04:02:26;21.83;;;9.57;;
22614;SDS011;11474;50.790;0.298;2022-12-18T04:04:55;21.55;;;9.80;;
22614;SDS011;11474;50.790;0.298;2022-12-18T04:07:23;21.83;;;9.90;;
22614;SDS011;11474;50.790;0.298;2022-12-18T04:09:50;19.83;;;9.50;;
22614;SDS011;11474;50.790;0.298;2022-12-18T04:12:17;18.93;;;9.20;;
22614;SDS011;11474;50.790;0.298;2022-12-18T04:14:44;18.88;;;8.95;;
22614;SDS011;11474;50.790;0.298;2022-12-18T04:17:10;18.25;;;8.73;;
22614;SDS011;11474;50.790;0.298;2022-12-18T04:19:36;20.90;;;9.40;;
22614;SDS011;11474;50.790;0.298;2022-12-18T04:22:02;21.15;;;10.07;;
22614;SDS011;11474;50.790;0.298;2022-12-18T04:24:28;20.85;;;9.93;;
22614;SDS011;11474;50.790;0.298;2022-12-18T04:26:54;22.23;;;10.20;;
22614;SDS011;11474;50.790;0.298;2022-12-18T04:29:20;27.77;;;10.52;;
22614;SDS011;11474;50.790;0.298;2022-12-18T04:31:46;21.27;;;9.90;;
22614;SDS011;11474;50.790;0.298;2022-12-18T04:34:12;22.60;;;10.15;;
22614;SDS011;11474;50.790;0.298;2022-12-18T04:36:38;21.95;;;9.85;;
22614;SDS011;11474;50.790;0.298;2022-12-18T04:39:04;18.17;;;9.48;;
22614;SDS011;11474;50.790;0.298;2022-12-18T04:41:30;19.65;;;9.63;;
22614;SDS011;11474;50.790;0.298;2022-12-18T04:43:56;22.27;;;10.27;;
22614;SDS011;11474;50.790;0.298;2022-12-18T04:46:22;20.98;;;9.55;;
22614;SDS011;11474;50.790;0.298;2022-12-18T04:48:48;24.25;;;11.15;;
22614;SDS011;11474;50.790;0.298;2022-12-18T04:51:14;19.83;;;10.15;;
22614;SDS011;11474;50.790;0.298;2022-12-18T04:53:41;20.02;;;10.52;;
22614;SDS011;11474;50.790;0.298;2022-12-18T04:56:11;21.60;;;11.23;;
22614;SDS011;11474;50.790;0.298;2022-12-18T04:58:39;21.42;;;10.30;;
22614;SDS011;11474;50.790;0.298;2022-12-18T05:01:05;19.83;;;9.13;;
22614;SDS011;11474;50.790;0.298;2022-12-18T05:03:32;22.38;;;8.07;;
22614;SDS011;11474;50.790;0.298;2022-12-18T05:05:58;22.55;;;9.40;;
22614;SDS011;11474;50.790;0.298;2022-12-18T05:08:24;22.27;;;10.35;;
22614;SDS011;11474;50.790;0.298;2022-12-18T05:10:58;19.55;;;10.65;;
22614;SDS011;11474;50.790;0.298;2022-12-18T05:13:24;21.38;;;11.18;;
22614;SDS011;11474;50.790;0.298;2022-12-18T05:15:51;24.05;;;11.23;;
22614;SDS011;11474;50.790;0.298;2022-12-18T05:18:17;21.40;;;11.00;;
22614;SDS011;11474;50.790;0.298;2022-12-18T05:20:43;22.35;;;11.15;;
22614;SDS011;11474;50.790;0.298;2022-12-18T05:23:09;23.95;;;11.35;;
22614;SDS011;11474;50.790;0.298;2022-12-18T05:25:35;23.20;;;10.63;;
22614;SDS011;11474;50.790;0.298;2022-12-18T05:28:01;20.20;;;10.35;;
22614;SDS011;11474;50.790;0.298;2022-12-18T05:30:27;22.15;;;10.90;;
22614;SDS011;11474;50.790;0.298;2022-12-18T05:32:53;22.92;;;11.00;;
22614;SDS011;11474;50.790;0.298;2022-12-18T05:35:19;24.55;;;11.02;;
22614;SDS011;11474;50.790;0.298;2022-12-18T05:37:45;22.08;;;10.90;;
22614;SDS011;11474;50.790;0.298;2022-12-18T05:40:11;23.42;;;11.35;;
22614;SDS011;11474;50.790;0.298;2022-12-18T05:42:38;24.27;;;11.27;;
22614;SDS011;11474;50.790;0.298;2022-12-18T05:45:04;22.80;;;10.63;;
22614;SDS011;11474;50.790;0.298;2022-12-18T05:47:30;23.25;;;10.60;;
22614;SDS011;11474;50.790;0.298;2022-12-18T05:49:56;21.58;;;10.73;;
22614;SDS011;11474;50.790;0.298;2022-12-18T05:52:22;20.55;;;10.88;;
22614;SDS011;11474;50.790;0.298;2022-12-18T05:54:49;21.08;;;10.88;;
22614;SDS011;11474;50.790;0.298;2022-12-18T05:57:15;22.27;;;10.75;;
22614;SDS011;11474;50.790;0.298;2022-12-18T05:59:41;23.98;;;10.80;;
22614;SDS011;11474;50.790;0.298;2022-12-18T06:02:07;23.03;;;10.20;;
22614;SDS011;11474;50.790;0.298;2022-12-18T06:04:33;19.70;;;10.63;;
22614;SDS011;11474;50.790;0.298;2022-12-18T06:06:59;26.80;;;11.15;;
22614;SDS011;11474;50.790;0.298;2022-12-18T06:09:28;24.35;;;10.77;;
22614;SDS011;11474;50.790;0.298;2022-12-18T06:11:54;22.83;;;10.95;;
22614;SDS011;11474;50.790;0.298;2022-12-18T06:14:20;20.27;;;10.38;;
22614;SDS011;11474;50.790;0.298;2022-12-18T06:16:46;22.10;;;10.57;;
22614;SDS011;11474;50.790;0.298;2022-12-18T06:19:15;22.80;;;11.03;;
22614;SDS011;11474;50.790;0.298;2022-12-18T06:21:41;23.05;;;10.55;;
22614;SDS011;11474;50.790;0.298;2022-12-18T06:24:08;20.65;;;10.18;;
22614;SDS011;11474;50.790;0.298;2022-12-18T06:26:34;23.17;;;10.60;;
22614;SDS011;11474;50.790;0.298;2022-12-18T06:29:02;27.13;;;11.45;;
22614;SDS011;11474;50.790;0.298;2022-12-18T06:31:28;21.52;;;10.60;;
22614;SDS011;11474;50.790;0.298;2022-12-18T06:33:54;23.85;;;11.30;;
22614;SDS011;11474;50.790;0.298;2022-12-18T06:36:20;22.83;;;11.10;;
22614;SDS011;11474;50.790;0.298;2022-12-18T06:38:46;26.20;;;12.40;;
22614;SDS011;11474;50.790;0.298;2022-12-18T06:41:16;25.15;;;11.30;;
22614;SDS011;11474;50.790;0.298;2022-12-18T06:43:43;22.65;;;11.43;;
22614;SDS011;11474;50.790;0.298;2022-12-18T06:46:09;24.42;;;11.20;;
22614;SDS011;11474;50.790;0.298;2022-12-18T06:48:35;23.65;;;11.70;;
22614;SDS011;11474;50.790;0.298;2022-12-18T06:51:02;21.83;;;11.70;;
22614;SDS011;11474;50.790;0.298;2022-12-18T06:53:28;22.70;;;12.20;;
22614;SDS011;11474;50.790;0.298;2022-12-18T06:56:04;27.95;;;12.35;;
22614;SDS011;11474;50.790;0.298;2022-12-18T06:58:31;24.50;;;11.43;;
22614;SDS011;11474;50.790;0.298;2022-12-18T07:01:00;26.58;;;12.07;;
22614;SDS011;11474;50.790;0.298;2022-12-18T07:03:26;25.02;;;12.32;;
22614;SDS011;11474;50.790;0.298;2022-12-18T07:05:52;24.05;;;12.13;;
22614;SDS011;11474;50.790;0.298;2022-12-18T07:08:18;27.67;;;13.35;;
22614;SDS011;11474;50.790;0.298;2022-12-18T07:10:44;26.30;;;12.85;;
22614;SDS011;11474;50.790;0.298;2022-12-18T07:13:10;26.05;;;12.55;;
22614;SDS011;11474;50.790;0.298;2022-12-18T07:15:36;24.27;;;12.48;;
22614;SDS011;11474;50.790;0.298;2022-12-18T07:18:03;25.63;;;12.30;;
22614;SDS011;11474;50.790;0.298;2022-12-18T07:20:29;26.35;;;12.70;;
22614;SDS011;11474;50.790;0.298;2022-12-18T07:22:55;25.27;;;12.95;;
22614;SDS011;11474;50.790;0.298;2022-12-18T07:25:21;28.27;;;14.48;;
22614;SDS011;11474;50.790;0.298;2022-12-18T07:27:47;27.05;;;13.60;;
22614;SDS011;11474;50.790;0.298;2022-12-18T07:30:13;28.03;;;13.50;;
22614;SDS011;11474;50.790;0.298;2022-12-18T07:32:39;29.23;;;13.82;;
22614;SDS011;11474;50.790;0.298;2022-12-18T07:35:05;27.05;;;13.55;;
22614;SDS011;11474;50.790;0.298;2022-12-18T07:37:31;29.25;;;14.00;;
22614;SDS011;11474;50.790;0.298;2022-12-18T07:39:57;29.52;;;14.13;;
22614;SDS011;11474;50.790;0.298;2022-12-18T07:42:23;26.20;;;13.27;;
22614;SDS011;11474;50.790;0.298;2022-12-18T07:44:55;27.17;;;14.45;;
22614;SDS011;11474;50.790;0.298;2022-12-18T07:47:22;28.27;;;14.05;;
22614;SDS011;11474;50.790;0.298;2022-12-18T07:49:48;31.02;;;15.55;;
22614;SDS011;11474;50.790;0.298;2022-12-18T07:52:14;28.52;;;14.55;;
22614;SDS011;11474;50.790;0.298;2022-12-18T07:54:40;28.55;;;14.82;;
22614;SDS011;11474;50.790;0.298;2022-12-18T07:57:06;31.00;;;15.77;;
22614;SDS011;11474;50.790;0.298;2022-12-18T07:59:32;29.42;;;15.57;;
22614;SDS011;11474;50.790;0.298;2022-12-18T08:01:58;29.40;;;15.30;;
22614;SDS011;11474;50.790;0.298;2022-12-18T08:04:25;30.30;;;16.10;;
22614;SDS011;11474;50.790;0.298;2022-12-18T08:06:51;28.05;;;15.05;;
22614;SDS011;11474;50.790;0.298;2022-12-18T08:09:17;29.55;;;15.23;;
22614;SDS011;11474;50.790;0.298;2022-12-18T08:11:43;32.15;;;16.02;;
22614;SDS011;11474;50.790;0.298;2022-12-18T08:14:10;29.92;;;16.05;;
22614;SDS011;11474;50.790;0.298;2022-12-18T08:16:36;33.38;;;17.33;;
22614;SDS011;11474;50.790;0.298;2022-12-18T08:19:02;30.63;;;16.52;;
22614;SDS011;11474;50.790;0.298;2022-12-18T08:21:29;32.83;;;16.63;;
22614;SDS011;11474;50.790;0.298;2022-12-18T08:23:57;31.73;;;16.52;;
22614;SDS011;11474;50.790;0.298;2022-12-18T08:26:24;34.85;;;17.27;;
22614;SDS011;11474;50.790;0.298;2022-12-18T08:28:50;34.85;;;17.60;;
22614;SDS011;11474;50.790;0.298;2022-12-18T08:31:17;30.42;;;16.83;;
22614;SDS011;11474;50.790;0.298;2022-12-18T08:33:43;33.22;;;17.88;;
22614;SDS011;11474;50.790;0.298;2022-12-18T08:36:09;34.17;;;17.45;;
22614;SDS011;11474;50.790;0.298;2022-12-18T08:38:35;36.08;;;18.92;;
22614;SDS011;11474;50.790;0.298;2022-12-18T08:41:02;35.05;;;18.95;;
22614;SDS011;11474;50.790;0.298;2022-12-18T08:43:29;34.42;;;18.25;;
22614;SDS011;11474;50.790;0.298;2022-12-18T08:46:14;33.80;;;18.03;;
22614;SDS011;11474;50.790;0.298;2022-12-18T08:48:40;37.00;;;19.65;;
22614;SDS011;11474;50.790;0.298;2022-12-18T08:51:06;37.55;;;19.55;;
22614;SDS011;11474;50.790;0.298;2022-12-18T08:53:34;38.65;;;21.20;;
22614;SDS011;11474;50.790;0.298;2022-12-18T08:56:00;40.67;;;20.80;;
22614;SDS011;11474;50.790;0.298;2022-12-18T08:58:26;39.90;;;19.63;;
22614;SDS011;11474;50.790;0.298;2022-12-18T09:00:52;40.92;;;20.52;;
22614;SDS011;11474;50.790;0.298;2022-12-18T09:03:19;35.42;;;19.35;;
22614;SDS011;11474;50.790;0.298;2022-12-18T09:05:47;39.88;;;20.27;;
22614;SDS011;11474;50.790;0.298;2022-12-18T09:08:13;42.58;;;21.73;;
22614;SDS011;11474;50.790;0.298;2022-12-18T09:10:43;40.00;;;20.75;;
22614;SDS011;11474;50.790;0.298;2022-12-18T09:13:09;40.42;;;21.35;;
22614;SDS011;11474;50.790;0.298;2022-12-18T09:15:42;43.40;;;21.42;;
22614;SDS011;11474;50.790;0.298;2022-12-18T09:18:09;43.78;;;21.90;;
22614;SDS011;11474;50.790;0.298;2022-12-18T09:20:35;38.47;;;21.15;;
22614;SDS011;11474;50.790;0.298;2022-12-18T09:23:02;42.60;;;21.52;;
22614;SDS011;11474;50.790;0.298;2022-12-18T09:25:31;38.97;;;21.67;;
22614;SDS011;11474;50.790;0.298;2022-12-18T09:28:19;43.45;;;21.15;;
22614;SDS011;11474;50.790;0.298;2022-12-18T09:30:48;40.75;;;21.45;;
22614;SDS011;11474;50.790;0.298;2022-12-18T09:33:14;42.83;;;21.13;;
22614;SDS011;11474;50.790;0.298;2022-12-18T09:35:41;43.40;;;22.23;;
22614;SDS011;11474;50.790;0.298;2022-12-18T09:38:08;45.50;;;22.48;;
22614;SDS011;11474;50.790;0.298;2022-12-18T09:40:36;40.57;;;22.23;;
22614;SDS011;11474;50.790;0.298;2022-12-18T09:43:05;38.15;;;21.48;;
22614;SDS011;11474;50.790;0.298;2022-12-18T09:45:39;43.13;;;22.77;;
22614;SDS011;11474;50.790;0.298;2022-12-18T09:48:08;38.78;;;21.98;;
22614;SDS011;11474;50.790;0.298;2022-12-18T09:50:37;42.72;;;21.48;;
22614;SDS011;11474;50.790;0.298;2022-12-18T09:53:06;39.10;;;21.55;;
22614;SDS011;11474;50.790;0.298;2022-12-18T09:55:37;45.45;;;23.02;;
22614;SDS011;11474;50.790;0.298;2022-12-18T09:58:06;45.20;;;23.02;;
22614;SDS011;11474;50.790;0.298;2022-12-18T10:00:33;41.80;;;22.08;;
22614;SDS011;11474;50.790;0.298;2022-12-18T10:03:00;36.92;;;19.75;;
22614;SDS011;11474;50.790;0.298;2022-12-18T10:08:10;35.88;;;20.38;;
22614;SDS011;11474;50.790;0.298;2022-12-18T10:13:15;39.42;;;20.38;;
22614;SDS011;11474;50.790;0.298;2022-12-18T10:20:52;39.17;;;19.67;;
22614;SDS011;11474;50.790;0.298;2022-12-18T10:23:28;38.33;;;20.33;;
22614;SDS011;11474;50.790;0.298;2022-12-18T10:26:03;35.70;;;19.58;;
22614;SDS011;11474;50.790;0.298;2022-12-18T10:28:30;33.97;;;18.65;;
22614;SDS011;11474;50.790;0.298;2022-12-18T10:30:56;35.95;;;19.42;;
22614;SDS011;11474;50.790;0.298;2022-12-18T10:33:23;35.90;;;19.27;;
22614;SDS011;11474;50.790;0.298;2022-12-18T10:35:50;33.03;;;19.35;;
22614;SDS011;11474;50.790;0.298;2022-12-18T10:43:15;39.15;;;19.23;;
22614;SDS011;11474;50.790;0.298;2022-12-18T10:45:42;37.42;;;19.52;;
22614;SDS011;11474;50.790;0.298;2022-12-18T10:48:21;38.15;;;19.17;;
22614;SDS011;11474;50.790;0.298;2022-12-18T10:50:49;37.55;;;19.00;;
22614;SDS011;11474;50.790;0.298;2022-12-18T10:53:19;37.45;;;19.10;;
22614;SDS011;11474;50.790;0.298;2022-12-18T10:55:45;35.08;;;19.00;;
22614;SDS011;11474;50.790;0.298;2022-12-18T11:01:07;39.78;;;20.80;;
22614;SDS011;11474;50.790;0.298;2022-12-18T11:03:35;33.17;;;19.20;;
22614;SDS011;11474;50.790;0.298;2022-12-18T11:06:11;44.80;;;21.08;;
22614;SDS011;11474;50.790;0.298;2022-12-18T11:08:38;38.00;;;20.83;;
22614;SDS011;11474;50.790;0.298;2022-12-18T11:11:06;41.13;;;21.47;;
22614;SDS011;11474;50.790;0.298;2022-12-18T11:13:33;38.05;;;19.92;;
22614;SDS011;11474;50.790;0.298;2022-12-18T11:15:59;45.55;;;21.58;;
22614;SDS011;11474;50.790;0.298;2022-12-18T11:18:30;39.75;;;21.45;;
22614;SDS011;11474;50.790;0.298;2022-12-18T11:20:59;39.07;;;21.43;;
22614;SDS011;11474;50.790;0.298;2022-12-18T11:23:26;39.33;;;21.63;;
22614;SDS011;11474;50.790;0.298;2022-12-18T11:25:56;36.72;;;20.58;;
22614;SDS011;11474;50.790;0.298;2022-12-18T11:31:09;38.33;;;20.67;;
22614;SDS011;11474;50.790;0.298;2022-12-18T11:33:37;38.42;;;20.30;;
22614;SDS011;11474;50.790;0.298;2022-12-18T11:36:07;45.15;;;21.10;;
22614;SDS011;11474;50.790;0.298;2022-12-18T11:38:34;38.80;;;19.83;;
22614;SDS011;11474;50.790;0.298;2022-12-18T11:41:13;39.45;;;20.35;;
22614;SDS011;11474;50.790;0.298;2022-12-18T11:46:10;46.95;;;21.25;;
22614;SDS011;11474;50.790;0.298;2022-12-18T11:48:40;44.20;;;21.65;;
22614;SDS011;11474;50.790;0.298;2022-12-18T11:51:14;40.05;;;21.55;;
22614;SDS011;11474;50.790;0.298;2022-12-18T11:53:41;39.55;;;20.92;;
22614;SDS011;11474;50.790;0.298;2022-12-18T12:06:31;38.42;;;21.08;;
22614;SDS011;11474;50.790;0.298;2022-12-18T12:14:06;33.53;;;18.97;;
22614;SDS011;11474;50.790;0.298;2022-12-18T12:21:56;37.22;;;18.77;;
22614;SDS011;11474;50.790;0.298;2022-12-18T12:31:55;36.13;;;18.80;;
22614;SDS011;11474;50.790;0.298;2022-12-18T12:34:23;39.40;;;19.42;;
22614;SDS011;11474;50.790;0.298;2022-12-18T12:39:36;36.03;;;17.88;;
22614;SDS011;11474;50.790;0.298;2022-12-18T12:42:04;35.05;;;18.23;;
22614;SDS011;11474;50.790;0.298;2022-12-18T12:44:51;35.17;;;19.00;;
22614;SDS011;11474;50.790;0.298;2022-12-18T12:47:20;38.28;;;19.35;;
22614;SDS011;11474;50.790;0.298;2022-12-18T12:49:48;35.17;;;18.15;;
22614;SDS011;11474;50.790;0.298;2022-12-18T12:52:17;34.10;;;17.88;;
22614;SDS011;11474;50.790;0.298;2022-12-18T12:54:43;33.42;;;17.17;;
22614;SDS011;11474;50.790;0.298;2022-12-18T12:57:19;30.52;;;17.13;;
22614;SDS011;11474;50.790;0.298;2022-12-18T12:59:56;33.60;;;16.38;;
22614;SDS011;11474;50.790;0.298;2022-12-18T13:02:33;34.90;;;17.65;;
22614;SDS011;11474;50.790;0.298;2022-12-18T13:07:49;33.33;;;17.30;;
22614;SDS011;11474;50.790;0.298;2022-12-18T13:13:07;31.63;;;16.27;;
22614;SDS011;11474;50.790;0.298;2022-12-18T13:20:36;32.22;;;16.58;;
22614;SDS011;11474;50.790;0.298;2022-12-18T13:25:47;34.88;;;17.27;;
22614;SDS011;11474;50.790;0.298;2022-12-18T13:28:14;32.67;;;17.43;;
22614;SDS011;11474;50.790;0.298;2022-12-18T13:30:41;33.72;;;15.57;;
22614;SDS011;11474;50.790;0.298;2022-12-18T13:43:20;32.30;;;16.15;;
22614;SDS011;11474;50.790;0.298;2022-12-18T13:45:59;32.20;;;16.40;;
22614;SDS011;11474;50.790;0.298;2022-12-18T13:48:26;33.58;;;17.00;;
22614;SDS011;11474;50.790;0.298;2022-12-18T13:51:03;40.17;;;17.50;;
22614;SDS011;11474;50.790;0.298;2022-12-18T13:53:34;30.83;;;15.20;;
22614;SDS011;11474;50.790;0.298;2022-12-18T13:56:02;37.05;;;16.88;;
22614;SDS011;11474;50.790;0.298;2022-12-18T13:58:28;31.35;;;16.58;;
22614;SDS011;11474;50.790;0.298;2022-12-18T14:00:54;33.83;;;17.15;;
22614;SDS011;11474;50.790;0.298;2022-12-18T14:03:21;34.58;;;16.55;;
22614;SDS011;11474;50.790;0.298;2022-12-18T14:06:05;34.67;;;17.95;;
22614;SDS011;11474;50.790;0.298;2022-12-18T14:08:39;34.40;;;16.50;;
22614;SDS011;11474;50.790;0.298;2022-12-18T14:11:07;30.60;;;16.25;;
22614;SDS011;11474;50.790;0.298;2022-12-18T14:13:43;40.30;;;17.35;;
22614;SDS011;11474;50.790;0.298;2022-12-18T14:16:11;36.72;;;16.52;;
22614;SDS011;11474;50.790;0.298;2022-12-18T14:18:41;37.80;;;16.42;;
22614;SDS011;11474;50.790;0.298;2022-12-18T14:21:15;32.05;;;16.02;;
22614;SDS011;11474;50.790;0.298;2022-12-18T14:23:42;34.33;;;15.60;;
22614;SDS011;11474;50.790;0.298;2022-12-18T14:26:22;29.17;;;14.40;;
22614;SDS011;11474;50.790;0.298;2022-12-18T14:28:49;29.97;;;15.00;;
22614;SDS011;11474;50.790;0.298;2022-12-18T14:31:26;38.27;;;15.13;;
22614;SDS011;11474;50.790;0.298;2022-12-18T14:33:53;33.60;;;16.38;;
22614;SDS011;11474;50.790;0.298;2022-12-18T14:36:26;32.35;;;15.75;;
22614;SDS011;11474;50.790;0.298;2022-12-18T14:38:53;33.88;;;15.80;;
22614;SDS011;11474;50.790;0.298;2022-12-18T14:41:19;31.92;;;14.77;;
22614;SDS011;11474;50.790;0.298;2022-12-18T14:43:47;33.38;;;16.20;;
22614;SDS011;11474;50.790;0.298;2022-12-18T14:48:58;38.60;;;17.13;;
22614;SDS011;11474;50.790;0.298;2022-12-18T14:51:31;38.03;;;17.65;;
22614;SDS011;11474;50.790;0.298;2022-12-18T14:54:02;34.50;;;17.48;;
22614;SDS011;11474;50.790;0.298;2022-12-18T14:56:36;40.38;;;18.42;;
22614;SDS011;11474;50.790;0.298;2022-12-18T15:07:06;40.80;;;17.87;;
22614;SDS011;11474;50.790;0.298;2022-12-18T15:09:34;41.67;;;18.98;;
22614;SDS011;11474;50.790;0.298;2022-12-18T15:12:00;39.72;;;19.88;;
22614;SDS011;11474;50.790;0.298;2022-12-18T15:16:59;45.47;;;20.27;;
22614;SDS011;11474;50.790;0.298;2022-12-18T15:19:37;43.88;;;20.15;;
22614;SDS011;11474;50.790;0.298;2022-12-18T15:22:04;46.38;;;20.30;;
22614;SDS011;11474;50.790;0.298;2022-12-18T15:24:31;45.95;;;20.35;;
22614;SDS011;11474;50.790;0.298;2022-12-18T15:26:58;42.72;;;21.05;;
22614;SDS011;11474;50.790;0.298;2022-12-18T15:29:24;50.63;;;21.23;;
22614;SDS011;11474;50.790;0.298;2022-12-18T15:31:59;42.78;;;19.83;;
22614;SDS011;11474;50.790;0.298;2022-12-18T15:34:26;46.78;;;21.67;;
22614;SDS011;11474;50.790;0.298;2022-12-18T15:36:52;43.20;;;20.08;;
22614;SDS011;11474;50.790;0.298;2022-12-18T15:39:18;49.28;;;21.48;;
22614;SDS011;11474;50.790;0.298;2022-12-18T15:41:44;44.58;;;20.35;;
22614;SDS011;11474;50.790;0.298;2022-12-18T15:44:29;47.10;;;20.95;;
22614;SDS011;11474;50.790;0.298;2022-12-18T15:46:55;45.83;;;20.58;;
22614;SDS011;11474;50.790;0.298;2022-12-18T15:49:21;41.10;;;19.45;;
22614;SDS011;11474;50.790;0.298;2022-12-18T15:51:57;52.03;;;21.15;;
22614;SDS011;11474;50.790;0.298;2022-12-18T15:54:24;45.83;;;21.08;;
22614;SDS011;11474;50.790;0.298;2022-12-18T15:57:11;45.80;;;20.65;;
22614;SDS011;11474;50.790;0.298;2022-12-18T15:59:53;50.53;;;20.73;;
22614;SDS011;11474;50.790;0.298;2022-12-18T16:02:21;42.80;;;19.33;;
22614;SDS011;11474;50.790;0.298;2022-12-18T16:04:48;54.80;;;21.63;;
22614;SDS011;11474;50.790;0.298;2022-12-18T16:07:14;51.78;;;21.45;;
22614;SDS011;11474;50.790;0.298;2022-12-18T16:09:40;49.40;;;20.27;;
22614;SDS011;11474;50.790;0.298;2022-12-18T16:12:10;38.75;;;17.73;;
22614;SDS011;11474;50.790;0.298;2022-12-18T16:14:39;48.78;;;19.02;;
22614;SDS011;11474;50.790;0.298;2022-12-18T16:17:08;45.15;;;18.52;;
22614;SDS011;11474;50.790;0.298;2022-12-18T16:19:35;52.75;;;20.48;;
22614;SDS011;11474;50.790;0.298;2022-12-18T16:22:01;45.28;;;18.92;;
22614;SDS011;11474;50.790;0.298;2022-12-18T16:24:28;44.63;;;20.30;;
22614;SDS011;11474;50.790;0.298;2022-12-18T16:26:55;48.38;;;19.73;;
22614;SDS011;11474;50.790;0.298;2022-12-18T16:29:22;52.83;;;19.30;;
22614;SDS011;11474;50.790;0.298;2022-12-18T16:31:52;47.72;;;20.05;;
22614;SDS011;11474;50.790;0.298;2022-12-18T16:36:47;45.55;;;20.10;;